createdAt,value
2022-08-22T00:02:48.773Z,1.95
2022-08-22T00:02:58.681Z,1.85
2022-08-22T00:03:42.708Z,2.80
2022-08-22T00:08:54.104Z,2.45
2022-08-22T00:14:36.509Z,3.08
2022-08-22T00:20:07.727Z,2.78
2022-08-22T00:25:33.769Z,3.05
2022-08-22T00:30:47.839Z,2.67
2022-08-22T00:35:54.602Z,3.20
2022-08-22T00:46:39.617Z,3.03
2022-08-22T00:52:16.334Z,3.25
2022-08-22T00:57:54.465Z,3.28
2022-08-22T01:03:27.112Z,3.55
2022-08-22T01:08:53.244Z,3.90
2022-08-22T01:14:34.645Z,3.20
2022-08-22T01:19:55.495Z,4.22
2022-08-22T01:25:21.444Z,3.10
2022-08-22T01:30:34.880Z,3.47
2022-08-22T01:35:55.268Z,3.20
2022-08-22T01:41:40.600Z,3.60
2022-08-22T01:46:58.466Z,3.45
2022-08-22T01:52:19.735Z,3.65
2022-08-22T01:57:24.143Z,3.42
2022-08-22T02:03:08.005Z,2.90
2022-08-22T02:08:44.853Z,3.38
2022-08-22T02:14:14.986Z,3.60
2022-08-22T02:19:16.623Z,3.10
2022-08-22T02:24:27.655Z,3.90
2022-08-22T02:29:58.866Z,3.65
2022-08-22T02:35:06.689Z,3.78
2022-08-22T02:40:17.495Z,4.35
2022-08-22T02:45:45.889Z,4.18
2022-08-22T02:51:01.494Z,4.40
2022-08-22T02:56:14.880Z,4.93
2022-08-22T03:01:29.137Z,5.40
2022-08-22T03:06:42.035Z,4.55
2022-08-22T03:11:49.491Z,4.72
2022-08-22T03:17:13.742Z,4.82
2022-08-22T03:22:58.401Z,4.55
2022-08-22T03:28:06.677Z,4.82
2022-08-22T03:33:22.786Z,4.97
2022-08-22T03:38:33.766Z,4.70
2022-08-22T03:44:00.400Z,4.45
2022-08-22T03:54:44.097Z,4.50
2022-08-22T04:00:30.111Z,5.00
2022-08-22T04:05:58.198Z,4.95
2022-08-22T04:11:17.281Z,4.80
2022-08-22T04:16:36.981Z,4.72
2022-08-22T04:21:50.654Z,4.30
2022-08-22T04:27:02.293Z,5.10
2022-08-22T04:32:17.358Z,4.60
2022-08-22T04:37:25.142Z,4.20
2022-08-22T04:42:36.393Z,4.13
2022-08-22T04:47:54.001Z,5.13
2022-08-22T04:52:59.057Z,5.25
2022-08-22T04:58:11.006Z,4.40
2022-08-22T05:03:16.635Z,4.30
2022-08-22T05:08:25.191Z,5.90
2022-08-22T05:13:34.245Z,4.45
2022-08-22T05:18:43.126Z,4.50
2022-08-22T05:23:54.081Z,4.57
2022-08-22T05:29:02.870Z,5.55
2022-08-22T05:34:12.022Z,6.68
2022-08-22T05:39:19.028Z,6.65
2022-08-22T05:44:27.425Z,4.85
2022-08-22T05:49:47.435Z,5.65
2022-08-22T05:55:05.100Z,5.45
2022-08-22T06:00:14.665Z,4.70
2022-08-22T06:05:25.776Z,6.38
2022-08-22T06:10:51.281Z,4.43
2022-08-22T06:16:11.801Z,4.90
2022-08-22T06:21:22.371Z,5.40
2022-08-22T06:26:31.638Z,5.85
2022-08-22T06:31:37.943Z,5.70
2022-08-22T06:36:43.618Z,5.30
2022-08-22T06:41:48.807Z,4.53
2022-08-22T06:46:54.534Z,4.82
2022-08-22T06:52:07.706Z,5.63
2022-08-22T06:57:26.679Z,5.30
2022-08-22T07:02:36.825Z,5.38
2022-08-22T07:07:38.472Z,5.38
2022-08-22T07:12:45.449Z,5.18
2022-08-22T07:17:52.427Z,4.65
2022-08-22T07:23:01.116Z,5.25
2022-08-22T07:28:51.259Z,4.90
2022-08-22T07:34:14.576Z,4.82
2022-08-22T07:39:37.157Z,4.00
2022-08-22T07:44:54.259Z,4.07
2022-08-22T07:50:04.582Z,3.00
2022-08-22T07:55:20.573Z,2.97
2022-08-22T08:00:23.946Z,3.63
2022-08-22T08:05:30.505Z,3.75
2022-08-22T08:10:35.446Z,3.15
2022-08-22T08:15:39.762Z,2.58
2022-08-22T08:20:41.903Z,3.45
2022-08-22T08:25:57.553Z,3.65
2022-08-22T08:31:07.750Z,3.55
2022-08-22T08:36:26.348Z,3.03
2022-08-22T08:41:49.868Z,2.65
2022-08-22T08:47:23.721Z,3.55
2022-08-22T08:52:37.292Z,2.83
2022-08-22T08:57:57.094Z,2.85
2022-08-22T09:03:15.618Z,2.72
2022-08-22T09:08:42.594Z,2.80
2022-08-22T09:13:50.126Z,2.40
2022-08-22T09:19:29.375Z,2.42
2022-08-22T09:24:59.802Z,1.45
2022-08-22T09:30:05.488Z,1.83
2022-08-22T09:35:18.954Z,1.80
2022-08-22T09:40:37.284Z,1.15
2022-08-22T09:46:02.102Z,1.02
2022-08-22T09:51:31.244Z,1.07
2022-08-22T09:56:38.533Z,1.00
2022-08-22T10:01:57.904Z,1.23
2022-08-22T10:07:26.875Z,1.20
2022-08-22T10:12:44.852Z,1.13
2022-08-22T10:18:10.479Z,1.38
2022-08-22T10:23:24.148Z,1.00
2022-08-22T10:28:44.915Z,1.08
2022-08-22T10:34:11.320Z,1.00
2022-08-22T10:39:22.558Z,1.23
2022-08-22T10:44:52.306Z,1.10
2022-08-22T10:50:03.031Z,1.40
2022-08-22T10:55:26.676Z,1.30
2022-08-22T11:00:54.945Z,1.63
2022-08-22T11:06:03.594Z,1.50
2022-08-22T11:11:11.071Z,1.30
2022-08-22T11:16:17.178Z,1.80
2022-08-22T11:26:59.042Z,1.13
2022-08-22T11:32:23.087Z,1.17
2022-08-22T11:37:43.389Z,1.52
2022-08-22T11:43:11.950Z,1.10
2022-08-22T11:48:25.843Z,1.25
2022-08-22T11:53:42.670Z,1.00
2022-08-22T11:59:04.576Z,1.25
2022-08-22T12:04:20.827Z,1.23
2022-08-22T12:09:41.418Z,0.98
2022-08-22T12:15:13.043Z,1.15
2022-08-22T12:20:23.449Z,1.13
2022-08-22T12:25:44.838Z,1.10
2022-08-22T12:31:02.650Z,1.42
2022-08-22T12:36:23.261Z,1.45
2022-08-22T12:42:04.258Z,1.10
2022-08-22T12:47:17.826Z,1.30
2022-08-22T12:52:57.060Z,1.65
2022-08-22T12:58:24.059Z,1.20
2022-08-22T13:03:42.893Z,1.30
2022-08-22T13:08:46.141Z,1.20
2022-08-22T13:14:00.535Z,1.42
2022-08-22T13:19:08.058Z,1.30
2022-08-22T13:24:39.182Z,1.10
2022-08-22T13:29:59.312Z,1.13
2022-08-22T13:35:01.865Z,1.20
2022-08-22T13:40:10.113Z,1.10
2022-08-22T13:45:21.714Z,1.20
2022-08-22T13:50:28.815Z,1.20
2022-08-22T13:55:51.367Z,1.20
2022-08-22T14:01:14.518Z,1.38
2022-08-22T14:06:38.131Z,1.30
2022-08-22T14:11:48.931Z,1.35
2022-08-22T14:16:56.730Z,1.20
2022-08-22T14:22:00.573Z,1.20
2022-08-22T14:27:12.367Z,1.70
2022-08-22T14:32:19.281Z,1.30
2022-08-22T14:37:33.003Z,1.10
2022-08-22T14:42:52.213Z,1.40
2022-08-22T14:48:29.547Z,0.93
2022-08-22T14:53:31.868Z,1.40
2022-08-22T14:59:05.878Z,1.30
2022-08-22T15:04:17.709Z,1.20
2022-08-22T15:09:27.100Z,0.90
2022-08-22T15:14:38.014Z,1.00
2022-08-22T15:19:43.127Z,1.20
2022-08-22T15:24:56.309Z,1.10
2022-08-22T15:30:21.213Z,1.20
2022-08-22T15:35:32.090Z,1.42
2022-08-22T15:40:43.046Z,1.35
2022-08-22T15:45:50.446Z,1.33
2022-08-22T15:50:58.407Z,1.45
2022-08-22T15:56:05.054Z,1.65
2022-08-22T16:01:19.990Z,1.30
2022-08-22T16:06:53.781Z,1.10
2022-08-22T16:11:57.627Z,1.30
2022-08-22T16:17:18.051Z,1.00
2022-08-22T16:22:19.820Z,1.20
2022-08-22T16:27:26.103Z,1.00
2022-08-22T16:37:49.919Z,1.20
2022-08-22T16:43:11.892Z,1.10
2022-08-22T16:48:33.487Z,1.38
2022-08-22T16:53:37.789Z,1.30
2022-08-22T16:59:06.052Z,1.27
2022-08-22T17:04:54.005Z,1.10
2022-08-22T17:10:13.636Z,1.17
2022-08-22T17:15:17.932Z,1.27
2022-08-22T17:20:37.997Z,1.20
2022-08-22T17:25:48.368Z,1.20
2022-08-22T17:31:05.343Z,1.20
2022-08-22T17:36:26.856Z,1.63
2022-08-22T17:41:49.529Z,1.48
2022-08-22T17:46:53.547Z,1.40
2022-08-22T17:52:05.361Z,1.30
2022-08-22T17:57:26.118Z,1.10
2022-08-22T18:02:40.779Z,1.30
2022-08-22T18:07:45.223Z,1.30
2022-08-22T18:13:17.040Z,1.42
2022-08-22T18:18:31.419Z,1.42
2022-08-22T18:23:42.488Z,1.25
2022-08-22T18:28:53.728Z,1.50
2022-08-22T18:34:07.348Z,1.20
2022-08-22T18:39:22.056Z,1.20
2022-08-22T18:44:33.164Z,1.45
2022-08-22T18:49:34.734Z,1.60
2022-08-22T18:54:44.784Z,1.58
2022-08-22T18:59:55.557Z,1.48
2022-08-22T19:05:19.857Z,1.50
2022-08-22T19:10:37.475Z,1.30
2022-08-22T19:15:47.979Z,1.30
2022-08-22T19:21:34.211Z,1.10
2022-08-22T19:26:39.701Z,1.50
2022-08-22T19:31:52.687Z,1.53
2022-08-22T19:37:32.049Z,1.35
2022-08-22T19:42:37.139Z,1.85
2022-08-22T19:47:42.804Z,1.40
2022-08-22T19:53:00.014Z,1.40
2022-08-22T19:58:32.938Z,1.60
2022-08-22T20:03:48.569Z,1.80
2022-08-22T20:09:25.698Z,1.60
2022-08-22T20:14:33.707Z,2.03
2022-08-22T20:19:42.491Z,3.03
2022-08-22T20:24:53.179Z,1.80
2022-08-22T20:30:07.618Z,2.60
2022-08-22T20:35:16.986Z,1.80
2022-08-22T20:40:57.346Z,2.08
2022-08-22T20:46:08.353Z,2.50
2022-08-22T20:51:17.781Z,3.40
2022-08-22T20:56:37.347Z,1.83
2022-08-22T21:01:39.270Z,1.90
2022-08-22T21:06:40.994Z,1.90
2022-08-22T21:11:50.655Z,1.70
2022-08-22T21:16:53.661Z,2.42
2022-08-22T21:22:15.218Z,2.30
2022-08-22T21:27:27.950Z,2.42
2022-08-22T21:32:37.542Z,2.47
2022-08-22T21:37:45.819Z,3.75
2022-08-22T21:43:05.570Z,3.20
2022-08-22T21:48:45.688Z,3.38
2022-08-22T21:53:47.640Z,2.75
2022-08-22T21:59:21.296Z,4.18
2022-08-22T22:04:26.754Z,4.68
2022-08-22T22:09:29.930Z,3.25
2022-08-22T22:14:31.609Z,3.70
2022-08-22T22:19:34.538Z,3.78
2022-08-22T22:24:36.293Z,3.60
2022-08-22T22:29:37.967Z,3.53
2022-08-22T22:34:39.554Z,3.55
2022-08-22T22:39:42.585Z,3.70
2022-08-22T22:44:47.505Z,4.65
2022-08-22T22:49:49.518Z,4.47
2022-08-22T22:54:52.389Z,4.55
2022-08-22T22:59:54.102Z,4.82
2022-08-22T23:04:56.980Z,4.40
2022-08-22T23:09:58.772Z,3.83
2022-08-22T23:15:04.823Z,4.40
2022-08-22T23:20:07.411Z,4.47
2022-08-22T23:25:09.495Z,5.18
2022-08-22T23:30:11.925Z,5.43
2022-08-22T23:35:13.639Z,6.13
2022-08-22T23:40:15.305Z,6.18
2022-08-22T23:45:17.127Z,4.70
2022-08-22T23:50:18.777Z,5.05
2022-08-22T23:55:20.683Z,4.85
